Pontiac, Michigan
Current Conditions -  °F | °C
As of 11:53 PM on Sunday 19 Oct 2014 (Local Time) from KPTK Reporting Station
Overcast Overcast  
Wind Chill:   Ceiling: 10000
Heat Index:   Visibility: 10mi
Dew Point:   Wind: 6mph
Humidity: 63%   Direction: 200°SSW
Pressure: 29.95"   Gusts: NA
Location:  42.64°N, 83.29°W
Report Text: KPTK 200353Z 20005KT 10SM OVC100 08/02 A2995 RMK AO2 SLP147 LAST AUGMENTED OBS NEXT 10Z T00830017
Loading
Personal Weather Stations






























Interactive Weather Map
Tropical Storm Tracking
New forecast layout! Learn more

10-Day Weather Forecast

Advertisements
Track Severe Weather on mobile